首页
METAR-TAF:

METAR-TAF

机场 :

內排國際機場

河內, 越南

纬度: 21-01N, 经度: 105-48E, 海拔: 6米

当前天气观测

该预报发布于42分钟前的09:00 UTC
风速8节,风向东转东南
温度 36°C
湿度 53%
气压 997 hPa
能见度10公里或以上
1500米以下无云,无积雨云

METAR: VVNB 190900Z 11008KT CAVOK 36/25 Q0997 NOSIG

时间: 16:42 (09:42 UTC)

预报

该预报发布于4小时和42分钟前的05:00 UTC
预报有效从19日的 06点(UTC)到 20日的 06点(UTC)
风速5节,风向
能见度10公里或以上
少量云层高于3000英尺
短暂存在
从 19日的 10点(UTC)到 19日的 15点(UTC)
风速15节,风向多变,有时为25节阵风
能見度: 4000
散云层高于1000英尺
少量云层高于2700英尺, 积雨云.
雷暴, 雨,

TAF: VVNB 190500Z 1906/2006 10005KT 9999 FEW030 TEMPO 1910/1915 VRB15G25KT 4000 TSRA SCT010 FEW027CB

超过4000个机场的气象观测和天气预报(METAR&TAF报告)。

可查询的气象台以黄色和红色小点在地图上表示。

将鼠标移到小点上方,可查看气象台名称。

然后点击查看天气观测和预报。

如需切换地图:点击带黑十字的绿色按钮放大地图;点击带横线的绿色按钮缩小地图;或者点击绿色箭头查看邻近地区的地图。


METAR-TAF: